Time;durP1;ratioP1;P1;durP2;ratioP2;P2;SDS_P1;SDS_P2;PMS_P1;PMS_P2;Temp;Humidity;BMP_temperature;BMP_pressure;BME280_temperature;BME280_humidity;BME280_pressure;Samples;Min_cycle;Max_cycle;Signal;HPM_P1;HPM_P2
2022/07/21 00:01:44;;;;;;;12.77;11.47;;;;;;;20.94;79.64;97076.63;10376565;28;20296;-23
2022/07/21 00:06:46;;;;;;;11.33;10.13;;;;;;;21.07;79.36;97089.31;10381661;28;20346;-22
2022/07/21 00:11:46;;;;;;;12.20;10.95;;;;;;;21.05;79.45;97091.00;10385640;28;20527;-23
2022/07/21 00:16:47;;;;;;;13.45;12.05;;;;;;;21.17;78.79;97088.44;10370580;28;20040;-22
2022/07/21 00:21:47;;;;;;;13.77;12.07;;;;;;;21.00;79.82;97087.66;10363980;28;20030;-22
2022/07/21 00:26:48;;;;;;;12.77;11.50;;;;;;;21.00;79.92;97086.81;10374336;28;20088;-24
2022/07/21 00:31:48;;;;;;;12.93;11.50;;;;;;;20.98;79.14;97085.97;10370104;28;20371;-24
2022/07/21 00:36:48;;;;;;;12.67;11.37;;;;;;;21.01;79.79;97091.91;10374452;28;20045;-23
2022/07/21 00:41:49;;;;;;;15.00;13.17;;;;;;;21.03;79.35;97091.88;10379184;28;20120;-25
2022/07/21 00:46:49;;;;;;;14.55;12.45;;;;;;;20.95;79.44;97103.78;10368708;28;20034;-23
2022/07/21 00:51:50;;;;;;;16.95;14.90;;;;;;;20.94;79.90;97087.69;10381911;28;20038;-23
2022/07/21 00:56:51;;;;;;;15.43;13.35;;;;;;;20.93;80.44;97087.66;10378861;28;20061;-23
2022/07/21 01:01:52;;;;;;;17.15;13.95;;;;;;;20.91;80.10;97087.69;10380152;28;20452;-23
2022/07/21 01:06:53;;;;;;;15.73;13.73;;;;;;;20.88;79.92;97089.41;10376112;28;20030;-23
2022/07/21 01:11:54;;;;;;;14.32;12.80;;;;;;;20.93;80.02;97086.00;10384918;28;20072;-23
2022/07/21 01:16:55;;;;;;;16.65;13.25;;;;;;;20.94;79.50;97089.34;10368916;28;20117;-23
2022/07/21 01:21:55;;;;;;;15.30;13.82;;;;;;;20.91;80.02;97097.88;10379571;28;20022;-23
2022/07/21 01:26:56;;;;;;;14.60;13.10;;;;;;;20.87;79.92;97090.25;10379519;28;20033;-24
2022/07/21 01:31:56;;;;;;;15.32;13.77;;;;;;;20.95;79.69;97074.09;10366618;28;20432;-23
2022/07/21 01:36:57;;;;;;;14.27;12.97;;;;;;;20.81;80.20;97060.53;10379067;28;20033;-23
2022/07/21 01:41:57;;;;;;;13.67;12.30;;;;;;;20.87;79.59;97095.34;10375861;28;20034;-23
2022/07/21 01:46:58;;;;;;;14.38;13.05;;;;;;;20.86;80.09;97099.59;10371422;28;20284;-22
2022/07/21 01:51:58;;;;;;;16.75;15.02;;;;;;;20.86;80.56;97076.69;10380044;28;20247;-23
2022/07/21 01:56:58;;;;;;;16.80;14.27;;;;;;;20.84;80.24;97070.72;10377207;28;20084;-23
2022/07/21 02:01:59;;;;;;;14.67;13.17;;;;;;;20.71;80.08;97053.78;10375990;28;20709;-23
2022/07/21 02:07:00;;;;;;;14.70;13.25;;;;;;;20.81;80.16;97088.53;10373095;28;20104;-23
2022/07/21 02:12:01;;;;;;;14.98;13.48;;;;;;;20.85;80.74;97087.69;10372056;28;20034;-23
2022/07/21 02:17:01;;;;;;;15.37;13.77;;;;;;;20.84;80.50;97101.25;10363042;28;20033;-22
2022/07/21 02:22:02;;;;;;;17.15;14.45;;;;;;;20.87;80.49;97080.09;10375983;28;20026;-22
2022/07/21 02:27:03;;;;;;;16.10;14.38;;;;;;;20.77;80.77;97084.31;10370954;28;20025;-23
2022/07/21 02:32:03;;;;;;;15.43;13.80;;;;;;;20.72;80.97;97080.91;10379859;28;20030;-22
2022/07/21 02:37:04;;;;;;;15.65;14.05;;;;;;;20.76;80.64;97095.34;10375744;28;20041;-22
2022/07/21 02:42:04;;;;;;;14.87;13.47;;;;;;;20.71;80.61;97084.31;10378571;28;20451;-23
2022/07/21 02:47:05;;;;;;;19.45;13.85;;;;;;;20.73;80.30;97087.69;10365354;28;20033;-24
2022/07/21 02:52:05;;;;;;;15.10;13.23;;;;;;;20.70;80.09;97097.91;10376345;28;20060;-23
2022/07/21 02:57:06;;;;;;;18.40;12.87;;;;;;;20.68;79.91;97098.75;10375930;28;20206;-23
2022/07/21 03:02:06;;;;;;;15.57;12.75;;;;;;;20.68;80.04;97106.38;10373590;28;20650;-22
2022/07/21 03:07:06;;;;;;;18.40;12.93;;;;;;;20.67;80.20;97100.47;10373010;28;20075;-23
2022/07/21 03:12:07;;;;;;;15.45;13.85;;;;;;;20.65;79.92;97108.94;10375447;28;20029;-22
2022/07/21 03:17:07;;;;;;;14.13;12.73;;;;;;;20.61;80.06;97108.09;10362548;28;20473;-23
2022/07/21 03:22:08;;;;;;;13.80;12.40;;;;;;;20.58;79.86;97104.72;10373671;28;21008;-22
2022/07/21 03:27:08;;;;;;;15.10;13.33;;;;;;;20.59;79.85;97111.50;10368881;28;20447;-22
2022/07/21 03:32:09;;;;;;;13.40;12.07;;;;;;;20.57;79.63;97116.56;10372226;28;20394;-22
2022/07/21 03:37:09;;;;;;;13.50;12.15;;;;;;;20.48;79.77;97106.41;10373163;28;20026;-23
2022/07/21 03:42:09;;;;;;;13.27;11.93;;;;;;;20.51;79.50;97124.25;10368697;28;20042;-24
2022/07/21 03:47:10;;;;;;;13.13;11.77;;;;;;;20.53;78.92;97109.81;10363321;28;20288;-23
2022/07/21 03:52:10;;;;;;;13.05;11.30;;;;;;;20.52;78.34;97108.13;10368184;28;20041;-23
2022/07/21 03:57:10;;;;;;;12.93;11.00;;;;;;;20.49;77.95;97128.50;10374067;28;20052;-23
2022/07/21 04:02:11;;;;;;;13.30;11.50;;;;;;;20.48;77.81;97126.78;10368224;28;20291;-22
2022/07/21 04:07:11;;;;;;;13.03;11.10;;;;;;;20.44;77.72;97125.09;10350420;28;20629;-22
2022/07/21 04:12:12;;;;;;;14.07;12.63;;;;;;;20.42;77.75;97120.03;10295134;28;20096;-23
2022/07/21 04:17:12;;;;;;;13.00;11.50;;;;;;;20.43;77.36;97128.50;10305769;28;20038;-22
2022/07/21 04:22:12;;;;;;;12.27;10.97;;;;;;;20.38;77.64;97130.19;10360373;28;20030;-22
2022/07/21 04:27:13;;;;;;;12.80;11.50;;;;;;;20.29;78.28;97138.66;10359586;28;20030;-23
2022/07/21 04:32:13;;;;;;;14.13;11.57;;;;;;;20.36;77.52;97135.28;10377450;28;20564;-22
2022/07/21 04:37:14;;;;;;;14.23;12.10;;;;;;;20.34;77.49;97136.97;10373768;28;20038;-22
2022/07/21 04:42:14;;;;;;;13.77;12.40;;;;;;;20.33;77.49;97135.28;10374694;28;20041;-22
2022/07/21 04:47:15;;;;;;;13.00;11.15;;;;;;;20.29;77.37;97143.75;10372879;28;20109;-22
2022/07/21 04:52:15;;;;;;;13.05;11.57;;;;;;;20.29;77.45;97143.75;10382987;28;20163;-22
2022/07/21 04:57:16;;;;;;;13.75;11.30;;;;;;;20.46;76.61;97148.81;10378014;28;20025;-22
2022/07/21 05:02:16;;;;;;;12.67;11.37;;;;;;;21.40;73.36;97140.09;10371748;28;20040;-22
2022/07/21 05:07:17;;;;;;;13.57;11.27;;;;;;;21.47;72.46;97146.84;10371933;28;20017;-23
2022/07/21 05:12:17;;;;;;;14.73;12.37;;;;;;;21.69;72.04;97147.59;10378632;28;21018;-23
2022/07/21 05:17:17;;;;;;;14.50;10.03;;;;;;;21.57;71.79;97143.38;10374003;28;20038;-24
2022/07/21 05:22:18;;;;;;;15.37;11.67;;;;;;;21.61;72.05;97134.03;10373141;28;20034;-23
2022/07/21 05:27:18;;;;;;;12.20;10.98;;;;;;;21.79;71.71;97134.81;10368215;28;20295;-23
2022/07/21 05:32:18;;;;;;;15.47;10.10;;;;;;;21.79;71.43;97155.19;10382794;28;20370;-21
2022/07/21 05:37:19;;;;;;;15.77;11.67;;;;;;;21.72;71.22;97152.72;10374880;28;20034;-24
2022/07/21 05:42:19;;;;;;;11.30;10.07;;;;;;;21.53;71.11;97131.53;10381583;28;20034;-23
2022/07/21 05:47:20;;;;;;;12.63;10.27;;;;;;;21.67;70.89;97155.28;10370479;28;20489;-23
2022/07/21 05:52:20;;;;;;;12.47;9.43;;;;;;;21.66;70.96;97165.47;10380137;28;20029;-23
2022/07/21 05:57:20;;;;;;;10.80;9.63;;;;;;;21.66;70.67;97170.56;10374107;28;20077;-22
2022/07/21 06:02:21;;;;;;;9.93;9.03;;;;;;;21.60;70.48;97158.69;10375373;28;20295;-24
2022/07/21 06:07:22;;;;;;;15.27;10.02;;;;;;;21.68;70.34;97177.38;10374146;28;20298;-23
2022/07/21 06:12:22;;;;;;;10.07;9.07;;;;;;;21.71;70.11;97146.75;10378270;28;20034;-23
2022/07/21 06:17:23;;;;;;;9.63;8.68;;;;;;;22.00;69.38;97195.00;10370141;28;20044;-22
2022/07/21 06:22:24;;;;;;;9.00;8.20;;;;;;;21.85;69.50;97174.69;10375311;28;20033;-22
2022/07/21 06:27:24;;;;;;;10.52;8.90;;;;;;;21.80;69.37;97172.19;10371812;28;20362;-24
2022/07/21 06:32:25;;;;;;;9.20;8.30;;;;;;;21.75;69.49;97184.13;10379683;28;20041;-24
2022/07/21 06:37:26;;;;;;;9.05;8.18;;;;;;;21.76;69.52;97182.41;10375764;28;20088;-23
2022/07/21 06:42:26;;;;;;;9.87;8.87;;;;;;;21.74;69.28;97189.22;10377780;28;20034;-23
2022/07/21 06:47:26;;;;;;;8.50;7.70;;;;;;;21.72;69.26;97194.31;10358345;28;20292;-24
2022/07/21 06:52:27;;;;;;;9.30;8.40;;;;;;;21.71;69.30;97190.06;10369024;28;20033;-24
2022/07/21 06:57:28;;;;;;;9.82;8.82;;;;;;;21.96;69.07;97199.28;10378318;28;20060;-23
2022/07/21 07:02:29;;;;;;;9.68;8.77;;;;;;;22.08;68.42;97203.47;10360401;28;20034;-24
2022/07/21 07:07:30;;;;;;;8.48;7.78;;;;;;;21.98;68.34;97207.75;10378044;28;20086;-24
2022/07/21 07:12:30;;;;;;;9.50;7.80;;;;;;;21.85;68.43;97184.91;10365233;28;20029;-24
2022/07/21 07:17:31;;;;;;;8.90;8.02;;;;;;;21.82;68.49;97195.94;10351540;28;20485;-23
2022/07/21 07:22:32;;;;;;;8.23;7.47;;;;;;;21.81;68.56;97189.16;10375009;28;20084;-23
2022/07/21 07:27:32;;;;;;;9.02;8.18;;;;;;;21.80;68.55;97186.66;10369237;28;20701;-23
2022/07/21 07:32:33;;;;;;;8.23;7.50;;;;;;;21.80;68.56;97187.47;10374747;28;20053;-24
2022/07/21 07:37:36;;;;;;;8.37;7.60;;;;;;;21.72;68.39;97179.03;10375634;28;20396;-24
2022/07/21 07:42:38;;;;;;;9.35;7.35;;;;;;;21.99;68.51;97194.16;10373032;28;20331;-23
2022/07/21 07:47:40;;;;;;;8.25;7.45;;;;;;;22.14;67.74;97193.22;10369325;28;20076;-23
2022/07/21 07:52:42;;;;;;;7.90;7.20;;;;;;;22.07;67.44;97194.94;10376753;28;20385;-22
2022/07/21 07:57:43;;;;;;;8.15;7.35;;;;;;;21.94;67.72;97195.03;10375017;28;20073;-22
2022/07/21 08:02:43;;;;;;;7.40;6.72;;;;;;;21.88;68.32;97200.19;10364236;28;20037;-23
2022/07/21 08:07:44;;;;;;;8.13;7.38;;;;;;;21.83;67.91;97196.81;10370654;28;20400;-24
2022/07/21 08:12:44;;;;;;;8.63;7.33;;;;;;;21.82;68.18;97195.13;10370074;28;20057;-24
2022/07/21 08:17:44;;;;;;;7.57;6.87;;;;;;;21.74;68.12;97177.31;10375972;28;20064;-23
2022/07/21 08:22:45;;;;;;;7.60;6.90;;;;;;;21.81;67.62;97184.06;10380805;28;20038;-24
2022/07/21 08:27:45;;;;;;;7.73;7.03;;;;;;;21.90;67.98;97167.88;10378852;28;20288;-23
2022/07/21 08:32:46;;;;;;;7.37;6.77;;;;;;;22.14;67.13;97173.66;10375952;28;20030;-23
2022/07/21 08:38:12;;;;;;;8.00;7.20;;;;;;;22.12;66.51;97190.69;10380870;28;20049;-23
2022/07/21 08:43:14;;;;;;;7.47;6.78;;;;;;;21.99;67.23;97189.06;10369164;28;20037;-24
2022/07/21 08:48:19;;;;;;;7.35;6.65;;;;;;;21.92;67.15;97192.53;10375092;28;20034;-24
2022/07/21 08:53:19;;;;;;;7.18;6.57;;;;;;;21.89;67.43;97192.53;10383362;28;20886;-24
2022/07/21 08:58:20;;;;;;;7.60;6.90;;;;;;;21.86;67.37;97196.78;10381104;28;20044;-23
2022/07/21 09:03:23;;;;;;;8.10;7.30;;;;;;;21.87;67.45;97191.69;10378113;28;20038;-23
2022/07/21 09:08:36;;;;;;;7.15;6.55;;;;;;;21.88;67.18;97197.66;10376092;28;20285;-23
2022/07/21 09:13:37;;;;;;;7.03;6.35;;;;;;;22.04;67.25;97192.44;10367047;28;20428;-24
2022/07/21 09:18:48;;;;;;;6.68;6.18;;;;;;;22.15;66.60;97187.25;10377647;28;20038;-23
2022/07/21 09:23:49;;;;;;;6.65;6.07;;;;;;;22.12;66.21;97190.69;10371819;28;20038;-24
2022/07/21 09:28:49;;;;;;;7.40;6.70;;;;;;;22.03;66.55;97194.97;10380336;28;20037;-24
2022/07/21 09:33:49;;;;;;;6.67;6.07;;;;;;;21.96;66.91;97194.19;10374392;28;20033;-24
2022/07/21 09:38:51;;;;;;;6.57;6.07;;;;;;;21.93;66.91;97199.31;10379828;28;20432;-23
2022/07/21 09:43:54;;;;;;;6.35;5.78;;;;;;;21.90;66.91;97195.94;10380164;28;20052;-24
2022/07/21 09:48:57;;;;;;;6.50;5.90;;;;;;;21.89;67.06;97199.34;10374528;28;20025;-24
2022/07/21 09:54:09;;;;;;;7.63;6.85;;;;;;;21.88;66.93;97193.38;10377111;28;20479;-24
2022/07/21 09:59:11;;;;;;;6.90;6.30;;;;;;;22.07;67.20;97202.59;10376040;28;20512;-24
2022/07/21 10:04:13;;;;;;;6.18;5.57;;;;;;;22.18;66.31;97190.66;10374582;28;20463;-24
2022/07/21 10:09:13;;;;;;;6.05;5.55;;;;;;;22.19;65.66;97177.03;10368987;28;20080;-24
2022/07/21 10:14:14;;;;;;;5.95;5.45;;;;;;;22.08;66.22;97193.25;10369576;28;20104;-23
2022/07/21 10:19:27;;;;;;;6.47;5.57;;;;;;;21.97;66.38;97185.66;10371848;28;20038;-23
2022/07/21 10:24:29;;;;;;;7.90;6.68;;;;;;;21.97;66.40;97185.66;10368469;28;20288;-25
2022/07/21 10:29:54;;;;;;;6.38;5.75;;;;;;;21.94;66.46;97180.59;10374724;28;20122;-25
2022/07/21 10:34:56;;;;;;;6.18;5.60;;;;;;;21.94;66.51;97182.28;10353504;28;20037;-24
2022/07/21 10:39:56;;;;;;;7.63;5.32;;;;;;;21.91;66.64;97180.59;10362319;28;20037;-24
2022/07/21 10:44:56;;;;;;;6.60;5.87;;;;;;;22.09;66.69;97180.50;10364052;28;20397;-24
2022/07/21 10:50:04;;;;;;;6.27;5.33;;;;;;;22.25;66.16;97174.44;10364356;28;20099;-24
2022/07/21 10:55:16;;;;;;;5.97;5.47;;;;;;;22.22;65.55;97163.41;10361966;28;20331;-23
2022/07/21 11:00:23;;;;;;;9.75;5.75;;;;;;;22.09;65.96;97165.22;10361711;28;20540;-24
2022/07/21 11:05:27;;;;;;;6.72;5.90;;;;;;;22.03;66.12;97160.13;10368522;28;20102;-23
2022/07/21 11:10:31;;;;;;;6.97;6.03;;;;;;;21.99;66.23;97163.56;10369034;28;20466;-24
2022/07/21 11:15:58;;;;;;;7.13;5.93;;;;;;;21.97;66.18;97149.97;10353956;28;20052;-24
2022/07/21 11:21:16;;;;;;;6.65;5.55;;;;;;;21.90;66.27;97148.31;10371741;28;20108;-23
2022/07/21 11:26:18;;;;;;;8.60;5.22;;;;;;;21.93;66.18;97148.31;10360755;28;20120;-24
2022/07/21 11:31:21;;;;;;;5.97;5.38;;;;;;;22.14;66.54;97143.03;10369120;28;20048;-24
2022/07/21 11:36:24;;;;;;;5.60;5.10;;;;;;;22.28;66.15;97136.13;10375335;28;20480;-24
2022/07/21 11:41:26;;;;;;;5.70;5.20;;;;;;;22.23;65.42;97140.41;10378488;28;20029;-24
2022/07/21 11:46:27;;;;;;;12.65;5.30;;;;;;;22.04;65.70;97121.03;10364282;28;20026;-23
2022/07/21 11:51:27;;;;;;;8.68;5.50;;;;;;;21.99;65.65;97115.09;10382924;28;20030;-24
2022/07/21 11:56:36;;;;;;;5.90;5.40;;;;;;;22.02;65.90;97125.31;10371109;28;20034;-24
2022/07/21 12:01:51;;;;;;;5.70;5.22;;;;;;;22.02;65.86;97122.75;10365225;28;20088;-24
2022/07/21 12:06:51;;;;;;;9.77;5.65;;;;;;;22.01;65.96;97115.09;10382987;28;20037;-24
2022/07/21 12:11:52;;;;;;;7.18;5.13;;;;;;;21.99;66.08;97114.28;10349316;28;20026;-24
2022/07/21 12:16:54;;;;;;;5.40;4.90;;;;;;;22.14;66.44;97102.25;10377490;28;20033;-24
2022/07/21 12:21:54;;;;;;;5.28;4.78;;;;;;;22.33;65.86;97108.03;10381251;28;20038;-23
2022/07/21 12:27:10;;;;;;;6.40;5.37;;;;;;;22.28;64.95;97105.53;10372986;28;20041;-24
2022/07/21 12:32:11;;;;;;;8.63;5.05;;;;;;;22.16;65.46;97102.25;10379068;28;20030;-24
2022/07/21 12:37:11;;;;;;;7.88;4.72;;;;;;;22.11;65.68;97099.72;10377914;28;20068;-23
2022/07/21 12:42:29;;;;;;;9.07;5.20;;;;;;;22.07;65.75;97105.69;10383828;28;20038;-24
2022/07/21 12:47:29;;;;;;;10.00;5.53;;;;;;;22.07;66.04;97092.13;10368899;28;20028;-27
2022/07/21 12:52:30;;;;;;;6.23;4.97;;;;;;;22.06;65.62;97098.91;10375582;28;20038;-24
2022/07/21 12:57:32;;;;;;;6.22;4.68;;;;;;;21.97;66.30;97073.47;10377050;28;20403;-24
2022/07/21 13:02:48;;;;;;;5.90;5.20;;;;;;;22.20;66.42;97081.78;10374156;28;20452;-23
2022/07/21 13:07:49;;;;;;;6.07;5.10;;;;;;;22.35;65.64;97080.81;10377992;28;20883;-24
2022/07/21 13:12:50;;;;;;;5.10;4.60;;;;;;;22.22;65.25;97084.34;10372620;28;20044;-24
2022/07/21 13:17:50;;;;;;;7.17;5.07;;;;;;;22.15;65.66;97087.78;10375215;28;20033;-23
2022/07/21 13:22:50;;;;;;;7.10;5.33;;;;;;;22.11;65.41;97081.00;10369679;28;20305;-23
2022/07/21 13:27:51;;;;;;;7.87;4.93;;;;;;;22.09;65.69;97088.69;10369392;28;20030;-23
2022/07/21 13:32:51;;;;;;;10.23;4.88;;;;;;;22.06;65.38;97075.94;10377886;28;20037;-24
2022/07/21 13:37:53;;;;;;;9.50;4.70;;;;;;;22.05;65.77;97069.16;10377713;28;20026;-23
2022/07/21 13:42:55;;;;;;;4.97;4.20;;;;;;;22.07;65.57;97075.09;10379184;28;20303;-23
2022/07/21 13:47:55;;;;;;;7.07;4.38;;;;;;;22.04;66.38;97044.53;10372365;28;20033;-24
2022/07/21 13:52:55;;;;;;;6.43;4.47;;;;;;;22.36;65.33;97068.03;10374232;28;20443;-24
2022/07/21 13:57:56;;;;;;;4.83;4.33;;;;;;;22.25;64.81;97054.56;10374328;28;20034;-23
2022/07/21 14:02:56;;;;;;;5.10;4.70;;;;;;;22.15;65.48;97052.91;10367790;28;20492;-25
2022/07/21 14:07:57;;;;;;;6.45;4.80;;;;;;;22.06;65.38;97047.91;10369279;28;20036;-23
2022/07/21 14:12:57;;;;;;;4.83;4.30;;;;;;;22.08;65.34;97055.56;10362322;28;20026;-24
2022/07/21 14:17:58;;;;;;;4.38;4.07;;;;;;;22.07;65.43;97058.97;10371352;28;20816;-23
2022/07/21 14:22:58;;;;;;;6.60;4.53;;;;;;;22.04;65.43;97056.41;10374522;28;20060;-24
2022/07/21 14:27:59;;;;;;;4.53;4.13;;;;;;;22.07;65.27;97056.41;10376690;28;20286;-24
2022/07/21 14:32:59;;;;;;;8.43;4.97;;;;;;;22.12;65.87;97052.97;10375856;28;20493;-24
2022/07/21 14:37:59;;;;;;;6.43;4.50;;;;;;;22.34;64.85;97058.69;10377427;28;20558;-24
2022/07/21 14:43:01;;;;;;;4.65;4.25;;;;;;;22.40;64.22;97049.28;10378519;28;20026;-24
2022/07/21 14:48:01;;;;;;;4.13;3.83;;;;;;;22.20;64.91;97056.28;10370222;28;20108;-24
2022/07/21 14:53:02;;;;;;;4.75;4.15;;;;;;;22.14;64.99;97041.03;10376314;28;20617;-24
2022/07/21 14:58:02;;;;;;;4.63;4.05;;;;;;;22.07;65.24;97041.94;10364345;28;20128;-24
2022/07/21 15:03:03;;;;;;;5.00;4.33;;;;;;;22.05;65.08;97043.66;10371557;28;20029;-24
2022/07/21 15:08:04;;;;;;;5.03;4.43;;;;;;;22.08;65.19;97043.63;10378966;28;20033;-24
2022/07/21 15:13:04;;;;;;;6.43;3.90;;;;;;;22.06;65.13;97042.81;10370168;28;20126;-24
2022/07/21 15:18:05;;;;;;;4.57;4.20;;;;;;;22.06;65.29;97041.97;10363517;28;20520;-24
2022/07/21 15:23:05;;;;;;;4.38;3.97;;;;;;;22.21;64.75;97017.16;10386141;28;20062;-24
2022/07/21 15:28:06;;;;;;;4.20;3.90;;;;;;;22.42;64.18;97032.31;10375101;28;20032;-24
2022/07/21 15:33:06;;;;;;;3.88;3.53;;;;;;;22.24;64.48;97027.31;10373351;28;20030;-24
2022/07/21 15:38:07;;;;;;;4.72;4.10;;;;;;;22.09;64.78;97014.75;10375697;28;20392;-23
2022/07/21 15:43:08;;;;;;;4.40;4.00;;;;;;;22.12;64.91;97017.25;10376884;28;20030;-25
2022/07/21 15:48:08;;;;;;;4.57;4.17;;;;;;;22.06;64.92;97008.81;10368995;28;20033;-25
2022/07/21 15:53:09;;;;;;;3.92;3.55;;;;;;;22.08;65.07;97010.47;10375448;28;20444;-23
2022/07/21 15:58:09;;;;;;;6.40;3.90;;;;;;;22.12;65.27;97014.72;10359395;28;20064;-24
2022/07/21 16:03:09;;;;;;;5.03;4.53;;;;;;;22.16;65.09;96987.47;10359165;28;20061;-24
2022/07/21 16:08:10;;;;;;;4.20;3.80;;;;;;;22.43;64.13;97003.38;10359363;28;20036;-24
2022/07/21 16:13:10;;;;;;;4.77;4.27;;;;;;;22.41;63.97;97004.25;10365162;28;20772;-23
2022/07/21 16:18:10;;;;;;;4.22;3.53;;;;;;;22.21;64.45;96991.66;10365247;28;20128;-24
2022/07/21 16:23:11;;;;;;;4.27;3.87;;;;;;;22.19;64.68;97002.72;10364105;28;20041;-24
2022/07/21 16:28:11;;;;;;;5.63;3.60;;;;;;;22.13;64.80;96998.53;10374669;28;20752;-24
2022/07/21 16:33:12;;;;;;;4.33;3.90;;;;;;;22.03;64.85;96975.69;10370996;28;20496;-23
2022/07/21 16:38:12;;;;;;;6.03;3.93;;;;;;;22.11;64.88;96995.16;10376212;28;20056;-24
2022/07/21 16:43:12;;;;;;;4.73;3.97;;;;;;;22.36;64.88;96986.41;10381516;28;20296;-24
2022/07/21 16:48:13;;;;;;;5.37;3.73;;;;;;;22.41;63.82;96983.81;10368723;28;20053;-24
2022/07/21 16:53:14;;;;;;;4.20;3.70;;;;;;;22.24;64.37;96970.38;10367021;28;20034;-24
2022/07/21 16:58:14;;;;;;;6.70;3.95;;;;;;;22.21;64.53;96993.34;10375649;28;20038;-25
2022/07/21 17:03:15;;;;;;;5.73;4.17;;;;;;;22.17;64.67;96987.47;10365550;28;20488;-24
2022/07/21 17:08:15;;;;;;;5.63;3.97;;;;;;;22.15;64.73;96991.72;10375361;28;20084;-25
2022/07/21 17:13:15;;;;;;;4.63;3.42;;;;;;;22.12;64.74;96994.31;10367691;28;20798;-26
2022/07/21 17:18:16;;;;;;;5.50;4.13;;;;;;;22.08;64.93;96984.97;10372558;28;20060;-23
2022/07/21 17:23:16;;;;;;;9.63;4.10;;;;;;;22.32;65.40;96979.63;10371898;28;20029;-25
2022/07/21 17:28:17;;;;;;;4.97;3.75;;;;;;;22.48;64.09;96986.28;10371329;28;20111;-25
2022/07/21 17:33:17;;;;;;;5.43;4.00;;;;;;;22.32;64.23;96989.81;10367395;28;20077;-24
2022/07/21 17:38:19;;;;;;;4.33;3.57;;;;;;;22.08;64.58;96967.13;10366453;28;20600;-23
2022/07/21 17:43:20;;;;;;;6.47;4.35;;;;;;;22.17;64.59;96990.00;10360588;28;20380;-25
2022/07/21 17:48:20;;;;;;;3.75;3.42;;;;;;;22.14;64.83;96990.03;10359317;28;20418;-25
2022/07/21 17:53:21;;;;;;;5.57;3.38;;;;;;;22.01;64.67;96978.28;10363159;28;20095;-24
2022/07/21 18:03:41;;;;;;;4.32;3.55;;;;;;;22.21;65.70;96996.75;10368260;28;20045;-24
2022/07/21 18:08:42;;;;;;;5.03;3.72;;;;;;;22.43;64.64;96988.06;10368963;28;20045;-22
2022/07/21 18:13:42;;;;;;;5.72;4.25;;;;;;;22.42;63.95;96985.50;10332943;28;20408;-24
2022/07/21 18:18:42;;;;;;;3.45;2.92;;;;;;;22.22;64.28;96978.03;10359557;28;20407;-23
2022/07/21 18:23:43;;;;;;;5.63;3.30;;;;;;;22.19;64.51;96988.28;10369745;28;20041;-23
2022/07/21 18:28:43;;;;;;;4.23;3.83;;;;;;;22.19;64.63;96989.97;10379480;28;20040;-24
2022/07/21 18:33:44;;;;;;;3.95;3.50;;;;;;;22.15;64.57;96990.88;10368209;28;20296;-25
2022/07/21 18:38:44;;;;;;;3.50;3.20;;;;;;;22.15;64.68;97004.47;10371078;28;20067;-25
2022/07/21 18:43:45;;;;;;;5.90;3.72;;;;;;;22.12;64.54;96996.84;10365965;28;20052;-25
2022/07/21 18:48:45;;;;;;;4.63;3.35;;;;;;;22.32;65.62;96994.94;10364754;28;20088;-24
2022/07/21 18:53:46;;;;;;;4.03;3.47;;;;;;;22.48;64.79;96996.50;10370696;28;20045;-25
2022/07/21 18:58:46;;;;;;;3.37;3.07;;;;;;;22.44;63.90;96994.84;10360080;28;20034;-26
2022/07/21 19:03:47;;;;;;;4.77;3.37;;;;;;;22.24;63.99;96986.50;10366766;28;20041;-24
2022/07/21 19:08:47;;;;;;;4.03;3.50;;;;;;;22.15;64.21;96986.59;10368324;28;20044;-25
2022/07/21 19:13:47;;;;;;;8.53;3.70;;;;;;;22.18;64.43;97001.91;10369348;28;20538;-23
2022/07/21 19:18:48;;;;;;;4.00;3.70;;;;;;;22.17;64.47;97009.56;10367506;28;20614;-25
2022/07/21 19:23:48;;;;;;;4.95;3.58;;;;;;;22.15;64.45;97012.13;10362988;28;20400;-23
2022/07/21 19:28:54;;;;;;;4.57;3.17;;;;;;;22.12;64.21;97007.06;10366493;28;20044;-24
2022/07/21 19:33:55;;;;;;;4.93;3.40;;;;;;;22.34;64.85;97013.63;10362139;28;20061;-24
2022/07/21 19:38:55;;;;;;;3.10;2.90;;;;;;;22.53;63.72;97019.41;10359651;28;20172;-23
2022/07/21 19:43:55;;;;;;;3.20;2.90;;;;;;;22.43;63.73;97025.47;10364482;28;20061;-25
2022/07/21 19:48:56;;;;;;;3.80;3.47;;;;;;;22.30;63.86;97031.53;10357639;28;20300;-25
2022/07/21 19:53:56;;;;;;;3.40;3.10;;;;;;;22.18;64.06;97032.50;10364252;28;20037;-25
2022/07/21 19:58:57;;;;;;;3.63;3.33;;;;;;;22.18;64.20;97041.84;10362176;28;21442;-25
2022/07/21 20:03:57;;;;;;;3.43;3.13;;;;;;;22.15;64.02;97039.34;10373729;28;20489;-22
2022/07/21 20:08:58;;;;;;;3.50;3.20;;;;;;;22.14;64.32;97035.94;10377254;28;20372;-25
2022/07/21 20:13:58;;;;;;;3.70;3.23;;;;;;;22.15;64.19;97042.72;10375642;28;20575;-24
2022/07/21 20:18:59;;;;;;;4.33;3.70;;;;;;;21.87;63.58;97036.19;10376767;28;20030;-24
2022/07/21 20:24:00;;;;;;;3.80;3.33;;;;;;;21.70;64.66;97048.22;10371732;28;20291;-24
2022/07/21 20:29:01;;;;;;;3.92;3.35;;;;;;;21.66;64.23;97046.53;10380161;28;20037;-24
2022/07/21 20:34:04;;;;;;;3.97;3.60;;;;;;;21.61;64.21;97043.16;10372810;28;20492;-24
2022/07/21 20:39:05;;;;;;;4.70;3.85;;;;;;;21.57;63.52;97044.00;10371357;28;20117;-24
2022/07/21 20:44:06;;;;;;;4.45;4.05;;;;;;;21.49;64.01;97039.84;10379924;28;20038;-24
2022/07/21 20:49:07;;;;;;;6.50;4.20;;;;;;;21.47;63.71;97044.94;10376453;28;20454;-24
2022/07/21 20:54:07;;;;;;;5.53;4.10;;;;;;;21.35;63.91;97031.44;10374143;28;20029;-24
2022/07/21 20:59:08;;;;;;;6.63;4.40;;;;;;;21.37;63.58;97047.53;10376495;28;20022;-24
2022/07/21 21:04:12;;;;;;;6.00;4.07;;;;;;;21.36;63.69;97040.75;10372839;28;20060;-23
2022/07/21 21:09:12;;;;;;;4.60;4.00;;;;;;;21.39;63.86;97051.78;10381438;28;20034;-24
2022/07/21 21:14:12;;;;;;;3.87;3.43;;;;;;;21.31;63.73;97045.88;10378211;28;20030;-24
2022/07/21 21:19:13;;;;;;;6.25;3.88;;;;;;;21.27;63.75;97053.56;10376072;28;20109;-24
2022/07/21 21:24:14;;;;;;;5.70;4.50;;;;;;;21.23;63.95;97049.34;10372236;28;20713;-24
2022/07/21 21:29:14;;;;;;;4.43;3.72;;;;;;;21.17;63.96;97044.28;10373362;28;20049;-24
2022/07/21 21:34:15;;;;;;;4.37;3.90;;;;;;;21.19;63.45;97047.66;10377281;28;20030;-23
2022/07/21 21:39:16;;;;;;;5.40;4.23;;;;;;;21.16;63.33;97042.59;10378873;28;20412;-23
2022/07/21 21:44:17;;;;;;;4.93;3.72;;;;;;;21.16;63.04;97046.00;10371700;28;20032;-23
2022/07/21 21:49:17;;;;;;;4.85;4.03;;;;;;;21.14;63.35;97037.50;10380857;28;20480;-23
2022/07/21 21:54:18;;;;;;;5.45;3.97;;;;;;;21.12;63.29;97043.44;10368385;28;20038;-24
2022/07/21 21:59:19;;;;;;;5.47;4.05;;;;;;;21.13;63.01;97043.44;10378873;28;20104;-23
2022/07/21 22:04:19;;;;;;;5.83;4.30;;;;;;;21.08;63.43;97046.88;10373774;28;20080;-24
2022/07/21 22:09:21;;;;;;;5.35;4.30;;;;;;;21.04;63.45;97051.13;10371208;28;20280;-23
2022/07/21 22:14:21;;;;;;;5.28;4.57;;;;;;;21.08;63.00;97045.19;10376462;28;20109;-24
2022/07/21 22:19:22;;;;;;;5.57;3.80;;;;;;;21.03;63.21;97046.91;10371576;28;20033;-24
2022/07/21 22:24:22;;;;;;;5.70;4.40;;;;;;;20.94;63.54;97052.03;10366166;28;20299;-24
2022/07/21 22:29:22;;;;;;;6.23;4.17;;;;;;;20.95;63.31;97045.22;10373677;28;20035;-25
2022/07/21 22:34:23;;;;;;;6.43;3.77;;;;;;;20.92;63.02;97043.56;10372097;28;20038;-24
2022/07/21 22:39:24;;;;;;;5.28;4.60;;;;;;;20.81;62.99;97037.63;10373265;28;20296;-23
2022/07/21 22:44:24;;;;;;;6.32;4.35;;;;;;;20.84;63.36;97037.63;10371567;28;20034;-23
2022/07/21 22:49:25;;;;;;;4.80;4.40;;;;;;;20.84;62.98;97030.00;10375415;28;20055;-23
2022/07/21 22:54:25;;;;;;;7.80;4.18;;;;;;;20.81;62.79;97035.09;10362708;28;20036;-23
2022/07/21 22:59:27;;;;;;;4.55;4.15;;;;;;;20.75;63.19;97030.03;10329147;28;1058304;-23
2022/07/21 23:04:27;;;;;;;5.63;4.38;;;;;;;20.67;63.59;97024.13;10372107;28;20030;-22
2022/07/21 23:09:28;;;;;;;6.45;4.07;;;;;;;20.76;63.20;97025.78;10379009;28;20201;-23
2022/07/21 23:14:29;;;;;;;3.90;3.58;;;;;;;20.70;63.19;97021.56;10375961;28;20033;-23
2022/07/21 23:19:29;;;;;;;4.50;4.10;;;;;;;20.61;63.65;97026.69;10371833;28;20042;-25